Time;durP1;ratioP1;P1;durP2;ratioP2;P2;SDS_P1;SDS_P2;PMS_P1;PMS_P2;Temp;Humidity;BMP_temperature;BMP_pressure;BME280_temperature;BME280_humidity;BME280_pressure;Samples;Min_cycle;Max_cycle;Signal;HPM_P1;HPM_P2
2022/10/29 00:01:11;;;;;;;17.75;6.78;;;;;;;;;;7391933;19;20005;-71
2022/10/29 00:03:36;;;;;;;16.05;6.97;;;;;;;;;;7392195;19;19999;-71
2022/10/29 00:06:08;;;;;;;17.80;6.25;;;;;;;;;;7393847;19;20054;-71
2022/10/29 00:08:36;;;;;;;18.75;6.35;;;;;;;;;;7393574;19;20010;-71
2022/10/29 00:11:21;;;;;;;23.33;7.60;;;;;;;;;;7390030;19;19999;-70
2022/10/29 00:13:51;;;;;;;18.63;6.60;;;;;;;;;;7393602;19;20007;-72
2022/10/29 00:16:19;;;;;;;14.63;6.30;;;;;;;;;;7393572;19;20013;-69
2022/10/29 00:18:45;;;;;;;13.38;6.85;;;;;;;;;;7393209;19;20007;-70
2022/10/29 00:21:16;;;;;;;14.15;6.80;;;;;;;;;;7393090;19;20009;-70
2022/10/29 00:23:41;;;;;;;15.15;6.43;;;;;;;;;;7395908;19;20005;-70
2022/10/29 00:26:07;;;;;;;14.60;6.07;;;;;;;;;;7393499;19;20600;-71
2022/10/29 00:28:33;;;;;;;19.30;6.93;;;;;;;;;;7392853;19;20026;-71
2022/10/29 00:31:07;;;;;;;15.10;6.70;;;;;;;;;;7392753;19;19999;-70
2022/10/29 00:33:32;;;;;;;21.35;7.20;;;;;;;;;;7392496;19;20011;-70
2022/10/29 00:36:01;;;;;;;12.65;6.32;;;;;;;;;;7393572;19;19990;-72
2022/10/29 00:38:27;;;;;;;14.68;7.15;;;;;;;;;;7393496;19;20021;-71
2022/10/29 00:40:53;;;;;;;18.48;7.13;;;;;;;;;;7391649;19;20022;-71
2022/10/29 00:43:20;;;;;;;20.05;6.90;;;;;;;;;;7385890;19;19999;-71
2022/10/29 00:46:02;;;;;;;17.02;7.35;;;;;;;;;;7387992;19;19999;-72
2022/10/29 00:48:32;;;;;;;15.73;7.05;;;;;;;;;;7387224;19;20013;-71
2022/10/29 00:50:59;;;;;;;17.02;7.05;;;;;;;;;;7385290;19;20030;-69
2022/10/29 00:53:27;;;;;;;18.13;7.45;;;;;;;;;;7387474;19;20387;-70
2022/10/29 00:55:53;;;;;;;16.60;6.60;;;;;;;;;;7385894;19;20158;-69
2022/10/29 00:58:20;;;;;;;15.02;6.78;;;;;;;;;;7387573;19;20008;-70
2022/10/29 01:00:45;;;;;;;18.23;7.03;;;;;;;;;;7395324;19;19998;-72
2022/10/29 01:03:10;;;;;;;19.17;6.72;;;;;;;;;;7390849;19;20353;-71
2022/10/29 01:05:36;;;;;;;15.15;7.07;;;;;;;;;;7391289;19;19991;-69
2022/10/29 01:08:03;;;;;;;14.60;7.22;;;;;;;;;;7391915;19;20003;-71
2022/10/29 01:10:51;;;;;;;17.85;7.10;;;;;;;;;;7389271;19;19999;-71
2022/10/29 01:13:35;;;;;;;20.65;7.35;;;;;;;;;;7387915;19;19998;-71
2022/10/29 01:16:07;;;;;;;20.48;7.72;;;;;;;;;;7391067;19;20003;-71
2022/10/29 01:18:59;;;;;;;15.00;7.57;;;;;;;;;;7391532;19;20497;-71
2022/10/29 01:21:33;;;;;;;14.48;7.03;;;;;;;;;;7389718;19;19991;-70
2022/10/29 01:24:29;;;;;;;14.82;7.15;;;;;;;;;;7389332;19;20621;-71
2022/10/29 01:27:11;;;;;;;16.70;7.13;;;;;;;;;;7395668;19;20044;-71
2022/10/29 01:29:40;;;;;;;17.23;7.45;;;;;;;;;;7389640;19;20568;-71
2022/10/29 01:32:13;;;;;;;20.65;7.22;;;;;;;;;;7388489;19;19999;-72
2022/10/29 01:34:54;;;;;;;19.55;7.80;;;;;;;;;;7390429;19;20638;-71
2022/10/29 01:37:32;;;;;;;20.10;7.88;;;;;;;;;;7390731;19;20003;-71
2022/10/29 01:40:13;;;;;;;18.30;7.43;;;;;;;;;;7387424;19;20006;-70
2022/10/29 01:42:44;;;;;;;16.90;6.97;;;;;;;;;;7389798;19;20404;-71
2022/10/29 01:45:18;;;;;;;16.63;7.57;;;;;;;;;;7390333;19;20010;-70
2022/10/29 01:47:54;;;;;;;18.27;8.32;;;;;;;;;;7388042;19;20006;-70
2022/10/29 01:50:22;;;;;;;16.90;8.48;;;;;;;;;;7388335;19;20002;-71
2022/10/29 01:52:49;;;;;;;19.85;8.02;;;;;;;;;;7389464;19;20358;-70
2022/10/29 01:55:18;;;;;;;21.52;8.20;;;;;;;;;;7390015;19;20058;-70
2022/10/29 01:57:44;;;;;;;18.73;7.88;;;;;;;;;;7390144;19;19999;-70
2022/10/29 02:00:11;;;;;;;20.60;8.18;;;;;;;;;;7386682;19;20017;-70
2022/10/29 02:03:01;;;;;;;20.52;8.35;;;;;;;;;;7389394;19;19998;-70
2022/10/29 02:05:40;;;;;;;16.23;7.20;;;;;;;;;;7390505;19;20325;-70
2022/10/29 02:08:18;;;;;;;18.73;7.57;;;;;;;;;;7388451;19;19999;-70
2022/10/29 02:11:04;;;;;;;14.85;7.18;;;;;;;;;;7389348;19;19991;-70
2022/10/29 02:13:39;;;;;;;15.02;7.90;;;;;;;;;;7389643;19;20002;-69
2022/10/29 02:16:07;;;;;;;14.57;7.50;;;;;;;;;;7387501;19;20033;-70
2022/10/29 02:18:44;;;;;;;14.85;7.72;;;;;;;;;;7389361;19;20456;-70
2022/10/29 02:21:09;;;;;;;17.48;8.35;;;;;;;;;;7389346;19;19998;-70
2022/10/29 02:23:35;;;;;;;25.73;8.60;;;;;;;;;;7390617;19;20005;-70
2022/10/29 02:26:00;;;;;;;18.13;8.15;;;;;;;;;;7390325;19;20007;-70
2022/10/29 02:28:25;;;;;;;19.63;9.52;;;;;;;;;;7389562;19;20028;-70
2022/10/29 02:30:50;;;;;;;21.48;9.45;;;;;;;;;;7388780;19;19998;-70
2022/10/29 02:33:16;;;;;;;28.00;10.63;;;;;;;;;;7388716;19;19990;-70
2022/10/29 02:35:41;;;;;;;21.85;10.38;;;;;;;;;;7388952;19;20001;-71
2022/10/29 02:38:06;;;;;;;19.85;10.93;;;;;;;;;;7389328;19;20074;-71
2022/10/29 02:40:32;;;;;;;19.50;10.52;;;;;;;;;;7387188;19;20017;-71
2022/10/29 02:42:57;;;;;;;18.77;9.77;;;;;;;;;;7388201;19;20358;-71
2022/10/29 02:45:22;;;;;;;18.98;9.13;;;;;;;;;;7388457;19;20001;-70
2022/10/29 02:47:47;;;;;;;21.42;9.50;;;;;;;;;;7388902;19;20103;-71
2022/10/29 02:50:13;;;;;;;20.98;9.70;;;;;;;;;;7387747;19;19998;-71
2022/10/29 02:52:39;;;;;;;22.67;9.82;;;;;;;;;;7386170;19;20387;-71
2022/10/29 02:55:05;;;;;;;18.75;8.65;;;;;;;;;;7391571;19;19999;-71
2022/10/29 02:57:30;;;;;;;18.05;9.30;;;;;;;;;;7386168;19;20418;-71
2022/10/29 02:59:55;;;;;;;19.98;10.02;;;;;;;;;;7386457;19;20050;-70
2022/10/29 03:02:21;;;;;;;19.70;10.30;;;;;;;;;;7387186;19;19990;-70
2022/10/29 03:04:46;;;;;;;22.60;10.48;;;;;;;;;;7386582;19;19998;-70
2022/10/29 03:07:11;;;;;;;20.10;9.38;;;;;;;;;;7388436;19;19990;-71
2022/10/29 03:09:36;;;;;;;18.50;9.73;;;;;;;;;;7384709;19;19999;-71
2022/10/29 03:12:02;;;;;;;17.77;9.23;;;;;;;;;;7385755;19;19995;-71
2022/10/29 03:14:27;;;;;;;21.15;9.70;;;;;;;;;;7386185;19;20007;-71
2022/10/29 03:16:53;;;;;;;17.20;9.13;;;;;;;;;;7387684;19;20002;-70
2022/10/29 03:19:18;;;;;;;19.50;9.80;;;;;;;;;;7384445;19;20070;-70
2022/10/29 03:21:43;;;;;;;18.92;9.35;;;;;;;;;;7386928;19;19999;-71
2022/10/29 03:24:09;;;;;;;20.67;9.85;;;;;;;;;;7387621;19;20011;-71
2022/10/29 03:26:34;;;;;;;23.33;10.35;;;;;;;;;;7385636;19;20509;-72
2022/10/29 03:28:59;;;;;;;26.15;10.00;;;;;;;;;;7386268;19;20085;-70
2022/10/29 03:31:25;;;;;;;21.85;9.88;;;;;;;;;;7389480;19;20038;-69
2022/10/29 03:33:50;;;;;;;17.13;8.88;;;;;;;;;;7385245;19;20459;-69
2022/10/29 03:36:16;;;;;;;20.73;9.43;;;;;;;;;;7391918;19;19999;-70
2022/10/29 03:38:41;;;;;;;19.70;10.27;;;;;;;;;;7393760;19;20018;-71
2022/10/29 03:41:09;;;;;;;19.90;9.32;;;;;;;;;;7394191;19;20475;-70
2022/10/29 03:43:38;;;;;;;19.13;9.43;;;;;;;;;;7392330;19;20025;-70
2022/10/29 03:46:04;;;;;;;18.88;9.43;;;;;;;;;;7394305;19;20501;-70
2022/10/29 03:48:30;;;;;;;16.17;9.30;;;;;;;;;;7394048;19;20009;-70
2022/10/29 03:50:57;;;;;;;27.17;9.02;;;;;;;;;;7391503;19;19995;-69
2022/10/29 03:53:23;;;;;;;18.13;9.00;;;;;;;;;;7394123;19;20008;-69
2022/10/29 03:55:50;;;;;;;17.65;8.73;;;;;;;;;;7393886;19;20070;-69
2022/10/29 03:58:16;;;;;;;17.02;9.38;;;;;;;;;;7392024;19;20006;-70
2022/10/29 04:00:41;;;;;;;22.92;9.43;;;;;;;;;;7393874;19;20011;-69
2022/10/29 04:03:06;;;;;;;17.80;8.68;;;;;;;;;;7393732;19;20007;-71
2022/10/29 04:05:32;;;;;;;17.85;9.38;;;;;;;;;;7393799;19;20464;-71
2022/10/29 04:07:57;;;;;;;15.93;8.82;;;;;;;;;;7394010;19;19994;-71
2022/10/29 04:10:25;;;;;;;16.13;8.60;;;;;;;;;;7391006;19;20018;-72
2022/10/29 04:12:51;;;;;;;17.35;9.18;;;;;;;;;;7392785;19;20471;-71
2022/10/29 04:15:17;;;;;;;17.73;8.95;;;;;;;;;;7394903;19;20148;-72
2022/10/29 04:17:42;;;;;;;18.02;8.88;;;;;;;;;;7393622;19;20012;-72
2022/10/29 04:20:08;;;;;;;20.25;8.48;;;;;;;;;;7390435;19;20003;-72
2022/10/29 04:22:33;;;;;;;22.70;9.18;;;;;;;;;;7393966;19;20018;-71
2022/10/29 04:24:58;;;;;;;17.27;8.80;;;;;;;;;;7392658;19;20003;-72
2022/10/29 04:27:26;;;;;;;23.52;9.10;;;;;;;;;;7393934;19;20106;-70
2022/10/29 04:29:51;;;;;;;19.40;8.45;;;;;;;;;;7392036;19;20538;-70
2022/10/29 04:32:16;;;;;;;26.15;9.05;;;;;;;;;;7391118;19;20006;-70
2022/10/29 04:34:42;;;;;;;19.67;9.23;;;;;;;;;;7393859;19;19998;-70
2022/10/29 04:37:07;;;;;;;19.58;9.07;;;;;;;;;;7393501;19;19997;-70
2022/10/29 04:39:32;;;;;;;20.08;8.95;;;;;;;;;;7392483;19;20006;-70
2022/10/29 04:41:57;;;;;;;14.82;8.23;;;;;;;;;;7392511;19;19999;-69
2022/10/29 04:44:23;;;;;;;27.40;8.35;;;;;;;;;;7393140;19;20024;-70
2022/10/29 04:46:49;;;;;;;17.40;8.85;;;;;;;;;;7390869;19;20467;-71
2022/10/29 04:49:14;;;;;;;18.40;8.65;;;;;;;;;;7390526;19;20003;-70
2022/10/29 04:51:39;;;;;;;21.65;8.73;;;;;;;;;;7389991;19;19991;-70
2022/10/29 04:54:05;;;;;;;16.40;7.65;;;;;;;;;;7392261;19;19998;-69
2022/10/29 04:56:30;;;;;;;20.13;8.10;;;;;;;;;;7392657;19;20075;-70
2022/10/29 04:58:55;;;;;;;17.67;8.38;;;;;;;;;;7391498;19;20111;-70
2022/10/29 05:01:21;;;;;;;20.83;9.27;;;;;;;;;;7392162;19;19995;-70
2022/10/29 05:03:46;;;;;;;17.42;8.55;;;;;;;;;;7392249;19;19994;-70
2022/10/29 05:06:11;;;;;;;16.38;8.55;;;;;;;;;;7392100;19;20050;-70
2022/10/29 05:08:37;;;;;;;17.83;9.15;;;;;;;;;;7391603;19;20054;-72
2022/10/29 05:11:04;;;;;;;21.05;8.65;;;;;;;;;;7389366;19;20328;-72
2022/10/29 05:13:29;;;;;;;21.42;8.73;;;;;;;;;;7390058;19;20976;-70
2022/10/29 05:15:55;;;;;;;17.25;8.00;;;;;;;;;;7391918;19;20018;-71
2022/10/29 05:18:20;;;;;;;14.50;8.25;;;;;;;;;;7391843;19;20535;-71
2022/10/29 05:20:45;;;;;;;13.13;7.68;;;;;;;;;;7393269;19;19991;-71
2022/10/29 05:23:11;;;;;;;17.25;8.57;;;;;;;;;;7391111;19;19998;-71
2022/10/29 05:25:39;;;;;;;17.40;8.45;;;;;;;;;;7391050;19;19991;-71
2022/10/29 05:28:11;;;;;;;17.70;8.55;;;;;;;;;;7390489;19;20328;-70
2022/10/29 05:30:37;;;;;;;16.60;8.50;;;;;;;;;;7389173;19;20543;-71
2022/10/29 05:33:07;;;;;;;20.33;8.63;;;;;;;;;;7389465;19;20032;-71
2022/10/29 05:35:33;;;;;;;17.77;8.68;;;;;;;;;;7391559;19;20478;-69
2022/10/29 05:37:59;;;;;;;17.50;9.65;;;;;;;;;;7389633;19;19998;-69
2022/10/29 05:40:25;;;;;;;18.35;8.85;;;;;;;;;;7387324;19;20364;-71
2022/10/29 05:42:51;;;;;;;23.35;9.23;;;;;;;;;;7388296;19;20025;-70
2022/10/29 05:45:17;;;;;;;19.27;10.00;;;;;;;;;;7392956;19;20006;-70
2022/10/29 05:47:43;;;;;;;16.58;9.52;;;;;;;;;;7390576;19;20464;-70
2022/10/29 05:50:09;;;;;;;19.65;9.35;;;;;;;;;;7389205;19;20017;-81
2022/10/29 05:52:34;;;;;;;25.60;9.00;;;;;;;;;;7391099;19;20006;-82
2022/10/29 05:54:59;;;;;;;24.20;10.43;;;;;;;;;;7391769;19;20066;-81
2022/10/29 05:57:26;;;;;;;21.85;9.10;;;;;;;;;;7393664;19;20515;-83
2022/10/29 05:59:51;;;;;;;19.90;9.00;;;;;;;;;;7392188;19;19998;-82
2022/10/29 06:02:16;;;;;;;20.70;8.90;;;;;;;;;;7393295;19;20034;-83
2022/10/29 06:04:42;;;;;;;18.90;9.75;;;;;;;;;;7393953;19;20499;-83
2022/10/29 06:07:07;;;;;;;21.02;9.30;;;;;;;;;;7399409;19;20006;-83
2022/10/29 06:09:32;;;;;;;21.63;9.38;;;;;;;;;;7416793;19;21029;-82
2022/10/29 06:11:58;;;;;;;20.35;9.77;;;;;;;;;;7405421;19;19990;-85
2022/10/29 06:14:23;;;;;;;24.90;11.85;;;;;;;;;;7394625;19;19990;-83
2022/10/29 06:16:48;;;;;;;25.05;11.30;;;;;;;;;;7394094;19;20017;-80
2022/10/29 06:19:14;;;;;;;20.75;9.80;;;;;;;;;;7384028;19;20002;-81
2022/10/29 06:21:39;;;;;;;19.75;8.90;;;;;;;;;;7386656;19;20043;-78
2022/10/29 06:24:05;;;;;;;20.90;8.95;;;;;;;;;;7387986;19;20006;-79
2022/10/29 06:26:33;;;;;;;25.00;9.90;;;;;;;;;;7387570;19;20003;-80
2022/10/29 06:28:59;;;;;;;17.33;8.90;;;;;;;;;;7388398;19;20006;-80
2022/10/29 06:31:24;;;;;;;20.30;9.02;;;;;;;;;;7386366;19;20006;-81
2022/10/29 06:33:50;;;;;;;22.98;8.98;;;;;;;;;;7389228;19;20002;-80
2022/10/29 06:36:15;;;;;;;19.83;10.05;;;;;;;;;;7389135;19;20023;-77
2022/10/29 06:38:40;;;;;;;20.90;9.40;;;;;;;;;;7387002;19;19998;-76
2022/10/29 06:41:06;;;;;;;15.77;8.50;;;;;;;;;;7388524;19;20002;-76
2022/10/29 06:43:31;;;;;;;16.92;8.65;;;;;;;;;;7388455;19;19995;-77
2022/10/29 06:45:57;;;;;;;20.70;9.07;;;;;;;;;;7388386;19;19999;-76
2022/10/29 06:48:22;;;;;;;24.83;10.05;;;;;;;;;;7382445;19;20058;-78
2022/10/29 06:50:48;;;;;;;17.55;9.15;;;;;;;;;;7386343;19;19998;-79
2022/10/29 06:53:14;;;;;;;26.52;14.73;;;;;;;;;;7388816;19;19998;-79
2022/10/29 06:55:40;;;;;;;23.90;12.50;;;;;;;;;;7381879;19;20010;-79
2022/10/29 06:58:10;;;;;;;15.88;8.82;;;;;;;;;;7387869;19;20068;-78
2022/10/29 07:00:36;;;;;;;18.98;8.77;;;;;;;;;;7381899;19;20031;-80
2022/10/29 07:03:03;;;;;;;24.15;9.68;;;;;;;;;;7387939;19;20002;-80
2022/10/29 07:05:29;;;;;;;20.25;8.88;;;;;;;;;;7382996;19;20045;-79
2022/10/29 07:07:59;;;;;;;17.80;8.68;;;;;;;;;;7384063;19;20336;-78
2022/10/29 07:10:26;;;;;;;17.88;8.82;;;;;;;;;;7380039;19;19999;-78
2022/10/29 07:12:52;;;;;;;24.33;9.95;;;;;;;;;;7383942;19;20368;-78
2022/10/29 07:15:17;;;;;;;19.38;8.90;;;;;;;;;;7385422;19;19999;-79
2022/10/29 07:18:02;;;;;;;16.02;8.55;;;;;;;;;;7387629;19;20010;-79
2022/10/29 07:20:30;;;;;;;24.80;9.52;;;;;;;;;;7387610;19;20050;-78
2022/10/29 07:22:56;;;;;;;15.45;9.48;;;;;;;;;;7388878;19;20006;-79
2022/10/29 07:25:22;;;;;;;17.92;8.52;;;;;;;;;;7388559;19;20009;-79
2022/10/29 07:27:47;;;;;;;16.70;8.52;;;;;;;;;;7391115;19;19998;-79
2022/10/29 07:30:13;;;;;;;22.73;9.30;;;;;;;;;;7385630;19;20018;-78
2022/10/29 07:32:38;;;;;;;17.70;9.05;;;;;;;;;;7386077;19;19994;-79
2022/10/29 07:35:03;;;;;;;18.05;8.30;;;;;;;;;;7388607;19;20374;-79
2022/10/29 07:37:29;;;;;;;24.75;8.65;;;;;;;;;;7388567;19;19991;-79
2022/10/29 07:39:54;;;;;;;13.07;8.43;;;;;;;;;;7385673;19;20006;-79
2022/10/29 07:42:20;;;;;;;16.33;8.13;;;;;;;;;;7386856;19;19991;-79
2022/10/29 07:44:45;;;;;;;15.30;8.40;;;;;;;;;;7388207;19;19994;-79
2022/10/29 07:47:10;;;;;;;19.83;8.45;;;;;;;;;;7388382;19;20337;-78
2022/10/29 07:49:35;;;;;;;16.48;8.05;;;;;;;;;;7386479;19;20527;-78
2022/10/29 07:52:01;;;;;;;18.67;8.35;;;;;;;;;;7385577;19;19995;-79
2022/10/29 07:54:26;;;;;;;20.15;8.00;;;;;;;;;;7387514;19;19994;-78
2022/10/29 07:56:52;;;;;;;16.27;8.80;;;;;;;;;;7387567;19;20420;-79
2022/10/29 07:59:18;;;;;;;17.55;8.32;;;;;;;;;;7387811;19;20003;-79
2022/10/29 08:01:44;;;;;;;15.43;8.43;;;;;;;;;;7388180;19;20034;-77
2022/10/29 08:04:09;;;;;;;16.13;8.30;;;;;;;;;;7387524;19;20480;-80
2022/10/29 08:06:35;;;;;;;19.70;8.23;;;;;;;;;;7395725;19;20033;-79
2022/10/29 08:09:00;;;;;;;20.10;8.55;;;;;;;;;;7392758;19;20006;-79
2022/10/29 08:11:25;;;;;;;19.58;11.90;;;;;;;;;;7390867;19;20101;-78
2022/10/29 08:13:51;;;;;;;17.98;8.65;;;;;;;;;;7392689;19;19997;-78
2022/10/29 08:16:17;;;;;;;21.08;9.00;;;;;;;;;;7390066;19;20006;-80
2022/10/29 08:18:42;;;;;;;18.60;9.63;;;;;;;;;;7390787;19;20066;-79
2022/10/29 08:21:07;;;;;;;16.40;9.38;;;;;;;;;;7390098;19;20003;-78
2022/10/29 08:23:32;;;;;;;14.77;8.45;;;;;;;;;;7397357;19;20003;-78
2022/10/29 08:25:58;;;;;;;19.52;8.73;;;;;;;;;;7319470;19;20014;-78
2022/10/29 08:28:23;;;;;;;19.70;9.82;;;;;;;;;;7383202;19;20002;-78
2022/10/29 08:30:49;;;;;;;16.33;8.38;;;;;;;;;;7370519;19;20003;-78
2022/10/29 08:33:15;;;;;;;15.95;9.20;;;;;;;;;;7387886;19;20002;-78
2022/10/29 08:35:40;;;;;;;16.77;8.70;;;;;;;;;;7396630;19;20010;-77
2022/10/29 08:38:06;;;;;;;16.98;7.90;;;;;;;;;;7396033;19;20003;-78
2022/10/29 08:40:34;;;;;;;18.65;9.00;;;;;;;;;;7393030;19;20429;-78
2022/10/29 08:43:44;;;;;;;18.83;8.65;;;;;;;;;;7395932;19;20074;-78
2022/10/29 08:46:31;;;;;;;18.92;10.13;;;;;;;;;;7397928;19;20006;-78
2022/10/29 08:49:01;;;;;;;18.63;9.90;;;;;;;;;;7396379;19;20022;-78
2022/10/29 08:51:31;;;;;;;19.27;9.40;;;;;;;;;;7396131;19;20005;-78
2022/10/29 08:54:00;;;;;;;23.10;8.55;;;;;;;;;;7395181;19;20238;-78
2022/10/29 08:56:34;;;;;;;18.92;8.88;;;;;;;;;;7396513;19;20006;-77
2022/10/29 08:59:09;;;;;;;20.85;8.70;;;;;;;;;;7396736;19;20021;-77
2022/10/29 09:01:35;;;;;;;22.52;8.90;;;;;;;;;;7395811;19;20090;-78
2022/10/29 09:04:02;;;;;;;18.00;7.85;;;;;;;;;;7393775;19;20480;-78
2022/10/29 09:06:43;;;;;;;18.45;7.85;;;;;;;;;;7395718;19;20099;-78
2022/10/29 09:09:25;;;;;;;16.38;7.93;;;;;;;;;;7393267;19;20006;-78
2022/10/29 09:12:24;;;;;;;22.08;8.73;;;;;;;;;;7393914;19;20489;-77
2022/10/29 09:15:11;;;;;;;15.15;8.40;;;;;;;;;;7392436;19;20006;-77
2022/10/29 09:17:46;;;;;;;19.80;8.52;;;;;;;;;;7393094;19;20398;-78
2022/10/29 09:20:42;;;;;;;22.67;9.02;;;;;;;;;;7389615;19;19995;-76
2022/10/29 09:23:45;;;;;;;20.45;9.07;;;;;;;;;;7395962;19;19995;-79
2022/10/29 09:26:16;;;;;;;19.98;8.93;;;;;;;;;;7394536;19;20027;-78
2022/10/29 09:28:51;;;;;;;19.60;8.95;;;;;;;;;;7394240;19;20374;-78
2022/10/29 09:31:16;;;;;;;20.30;8.32;;;;;;;;;;7393527;19;20003;-78
2022/10/29 09:33:45;;;;;;;16.05;8.57;;;;;;;;;;7390550;19;19997;-77
2022/10/29 09:36:15;;;;;;;14.48;8.02;;;;;;;;;;7392517;19;20456;-77
2022/10/29 09:38:47;;;;;;;18.20;8.43;;;;;;;;;;7394635;19;19991;-77
2022/10/29 09:41:13;;;;;;;21.50;8.50;;;;;;;;;;7393432;19;20066;-77
2022/10/29 09:43:49;;;;;;;25.83;9.10;;;;;;;;;;7388362;19;20029;-78
2022/10/29 09:46:24;;;;;;;19.27;8.45;;;;;;;;;;7391955;19;19987;-77
2022/10/29 09:48:59;;;;;;;23.20;9.10;;;;;;;;;;7393816;19;20369;-77
2022/10/29 09:51:36;;;;;;;18.58;8.73;;;;;;;;;;7392249;19;19999;-78
2022/10/29 09:54:03;;;;;;;19.55;7.45;;;;;;;;;;7394025;19;20457;-77
2022/10/29 09:56:28;;;;;;;15.75;7.80;;;;;;;;;;7392158;19;19994;-77
2022/10/29 09:59:03;;;;;;;17.98;7.60;;;;;;;;;;7391668;19;20481;-78
2022/10/29 10:01:28;;;;;;;20.10;8.27;;;;;;;;;;7392551;19;19998;-78
2022/10/29 10:03:58;;;;;;;15.60;7.47;;;;;;;;;;7393439;19;20002;-77
2022/10/29 10:06:23;;;;;;;17.27;8.18;;;;;;;;;;7392250;19;20360;-77
2022/10/29 10:09:00;;;;;;;21.63;8.77;;;;;;;;;;7392058;19;19999;-77
2022/10/29 10:11:41;;;;;;;18.15;8.38;;;;;;;;;;7395346;19;20058;-77
2022/10/29 10:14:17;;;;;;;22.17;8.55;;;;;;;;;;7391920;19;20066;-77
2022/10/29 10:16:42;;;;;;;27.67;7.97;;;;;;;;;;7391794;19;19994;-78
2022/10/29 10:19:22;;;;;;;13.52;7.38;;;;;;;;;;7391060;19;20349;-78
2022/10/29 10:21:59;;;;;;;17.90;7.05;;;;;;;;;;7392781;19;19994;-79
2022/10/29 10:24:33;;;;;;;17.75;7.28;;;;;;;;;;7392315;19;19995;-78
2022/10/29 10:26:59;;;;;;;20.92;7.35;;;;;;;;;;7392010;19;20340;-78
2022/10/29 10:29:25;;;;;;;24.45;7.45;;;;;;;;;;7391164;19;20478;-78
2022/10/29 10:31:54;;;;;;;15.52;7.18;;;;;;;;;;7391557;19;20016;-78
2022/10/29 10:34:24;;;;;;;25.02;7.82;;;;;;;;;;7390527;19;20005;-78
2022/10/29 10:36:56;;;;;;;19.55;7.80;;;;;;;;;;7391286;19;20010;-78
2022/10/29 10:39:36;;;;;;;17.90;7.35;;;;;;;;;;7390970;19;20008;-78
2022/10/29 10:42:38;;;;;;;21.95;7.43;;;;;;;;;;7393007;19;20002;-77
2022/10/29 10:45:23;;;;;;;27.60;8.40;;;;;;;;;;7388040;19;19999;-76
2022/10/29 10:47:57;;;;;;;25.65;9.05;;;;;;;;;;7392610;19;20104;-76
2022/10/29 10:50:31;;;;;;;19.17;7.97;;;;;;;;;;7388596;19;20035;-77
2022/10/29 10:53:02;;;;;;;22.30;7.72;;;;;;;;;;7388378;19;19999;-77
2022/10/29 10:55:30;;;;;;;;;;;;;;;;;;7392604;19;20118;-75
2022/10/29 10:58:16;;;;;;;20.38;7.15;;;;;;;;;;7391914;19;19915;-77
2022/10/29 11:00:46;;;;;;;23.25;8.10;;;;;;;;;;7388081;19;19994;-77
2022/10/29 11:03:20;;;;;;;22.48;8.02;;;;;;;;;;7391677;19;20006;-77
2022/10/29 11:06:00;;;;;;;20.73;9.00;;;;;;;;;;7391093;19;19998;-77
2022/10/29 11:08:31;;;;;;;17.40;6.97;;;;;;;;;;7389448;19;20523;-76
2022/10/29 11:11:05;;;;;;;19.45;9.30;;;;;;;;;;7387914;19;20460;-75
2022/10/29 11:13:32;;;;;;;21.38;9.73;;;;;;;;;;7391112;19;19995;-76
2022/10/29 11:16:13;;;;;;;27.15;8.25;;;;;;;;;;7392445;19;20023;-77
2022/10/29 11:18:47;;;;;;;16.48;7.68;;;;;;;;;;7389843;19;20023;-77
2022/10/29 11:21:23;;;;;;;25.65;8.30;;;;;;;;;;7390501;19;20027;-77
2022/10/29 11:24:11;;;;;;;24.35;7.90;;;;;;;;;;7391957;19;19999;-76
2022/10/29 11:26:41;;;;;;;22.63;8.00;;;;;;;;;;7389234;19;19995;-76
2022/10/29 11:29:12;;;;;;;18.88;7.65;;;;;;;;;;7388187;19;20365;-76
2022/10/29 11:31:38;;;;;;;14.95;7.78;;;;;;;;;;7389690;19;19998;-76
2022/10/29 11:34:23;;;;;;;17.73;7.60;;;;;;;;;;7392751;19;19999;-76
2022/10/29 11:37:13;;;;;;;20.77;7.57;;;;;;;;;;7388860;19;20003;-77
2022/10/29 11:39:51;;;;;;;27.08;8.25;;;;;;;;;;7390117;19;20055;-76
2022/10/29 11:42:16;;;;;;;23.60;7.57;;;;;;;;;;7387587;19;20441;-76
2022/10/29 11:44:42;;;;;;;18.92;7.35;;;;;;;;;;7388998;19;20001;-76
2022/10/29 11:47:24;;;;;;;17.73;7.75;;;;;;;;;;7389115;19;19999;-76
2022/10/29 11:50:10;;;;;;;22.80;7.55;;;;;;;;;;7387738;19;20046;-73
2022/10/29 11:53:17;;;;;;;20.65;8.13;;;;;;;;;;7384790;19;20010;-73
2022/10/29 11:55:55;;;;;;;37.22;8.35;;;;;;;;;;7385211;19;20032;-76
2022/10/29 11:58:45;;;;;;;41.58;15.50;;;;;;;;;;7393114;19;19998;-76
2022/10/29 12:01:24;;;;;;;34.65;9.13;;;;;;;;;;7394376;19;20030;-76
2022/10/29 12:04:19;;;;;;;31.77;9.50;;;;;;;;;;7395010;19;19999;-77
2022/10/29 12:06:53;;;;;;;28.02;10.50;;;;;;;;;;7394113;19;20006;-76
2022/10/29 12:09:40;;;;;;;35.05;8.95;;;;;;;;;;7396158;19;20359;-76
2022/10/29 12:12:18;;;;;;;25.08;8.23;;;;;;;;;;7389420;19;19998;-75
2022/10/29 12:14:50;;;;;;;22.70;8.85;;;;;;;;;;7390062;19;20010;-77
2022/10/29 12:17:34;;;;;;;19.98;9.52;;;;;;;;;;7391784;19;20009;-75
2022/10/29 12:20:28;;;;;;;24.95;8.90;;;;;;;;;;7388922;19;20048;-75
2022/10/29 12:23:06;;;;;;;19.13;7.93;;;;;;;;;;7393872;19;20002;-76
2022/10/29 12:25:40;;;;;;;32.63;15.60;;;;;;;;;;7395871;19;20027;-77
2022/10/29 12:28:19;;;;;;;22.90;10.68;;;;;;;;;;7394743;19;20400;-77
2022/10/29 12:31:07;;;;;;;18.20;8.68;;;;;;;;;;7393638;19;19999;-76
2022/10/29 12:33:47;;;;;;;18.95;7.93;;;;;;;;;;7394392;19;20003;-76
2022/10/29 12:36:15;;;;;;;21.13;8.50;;;;;;;;;;7391852;19;20407;-76
2022/10/29 12:38:43;;;;;;;18.25;8.77;;;;;;;;;;7392569;19;20018;-77
2022/10/29 12:41:18;;;;;;;23.75;8.55;;;;;;;;;;7390426;19;19995;-76
2022/10/29 12:43:44;;;;;;;17.38;8.25;;;;;;;;;;7396298;19;20002;-76
2022/10/29 12:46:21;;;;;;;20.63;7.82;;;;;;;;;;7396915;19;19994;-76
2022/10/29 12:49:08;;;;;;;16.83;7.65;;;;;;;;;;7391670;19;20074;-75
2022/10/29 12:51:39;;;;;;;18.42;7.60;;;;;;;;;;7393871;19;20018;-77
2022/10/29 12:54:35;;;;;;;15.88;7.72;;;;;;;;;;7395227;19;20011;-77
2022/10/29 12:57:28;;;;;;;17.67;7.47;;;;;;;;;;7394179;19;20006;-77
2022/10/29 12:59:54;;;;;;;16.77;7.50;;;;;;;;;;7393762;19;20031;-75
2022/10/29 13:02:37;;;;;;;17.63;7.78;;;;;;;;;;7395074;19;20003;-75
2022/10/29 13:05:05;;;;;;;19.40;8.10;;;;;;;;;;7394116;19;19999;-76
2022/10/29 13:07:31;;;;;;;18.20;7.53;;;;;;;;;;7392281;19;20506;-76
2022/10/29 13:10:23;;;;;;;20.40;7.88;;;;;;;;;;7392775;19;19998;-76
2022/10/29 13:13:14;;;;;;;16.85;8.02;;;;;;;;;;7388051;19;20026;-76
2022/10/29 13:15:59;;;;;;;14.80;7.75;;;;;;;;;;7394121;19;20070;-77
2022/10/29 13:18:47;;;;;;;16.25;7.28;;;;;;;;;;7392429;19;20090;-76
2022/10/29 13:21:12;;;;;;;18.10;7.22;;;;;;;;;;7391202;19;20400;-77
2022/10/29 13:23:37;;;;;;;17.15;7.68;;;;;;;;;;7394715;19;20006;-76
2022/10/29 13:26:04;;;;;;;23.52;7.90;;;;;;;;;;7392847;19;20007;-75
2022/10/29 13:28:50;;;;;;;20.95;7.88;;;;;;;;;;7391854;19;20058;-76
2022/10/29 13:31:15;;;;;;;14.05;6.97;;;;;;;;;;7387438;19;20003;-76
2022/10/29 13:33:40;;;;;;;19.30;6.90;;;;;;;;;;7384316;19;20530;-76
2022/10/29 13:36:14;;;;;;;18.63;7.23;;;;;;;;;;7376229;19;20252;-76
2022/10/29 13:38:41;;;;;;;19.55;7.05;;;;;;;;;;7389974;19;20611;-76
2022/10/29 13:41:19;;;;;;;13.63;7.53;;;;;;;;;;7391022;19;20006;-77
2022/10/29 13:43:59;;;;;;;18.17;6.65;;;;;;;;;;7393079;19;20002;-76
2022/10/29 13:46:33;;;;;;;17.52;6.93;;;;;;;;;;7391803;19;20516;-76
2022/10/29 13:49:01;;;;;;;15.60;7.10;;;;;;;;;;7392913;19;20074;-75
2022/10/29 13:51:34;;;;;;;16.75;7.43;;;;;;;;;;7390478;19;19998;-76
2022/10/29 13:54:07;;;;;;;17.40;7.30;;;;;;;;;;7394501;19;20070;-76
2022/10/29 13:56:50;;;;;;;17.80;7.72;;;;;;;;;;7390972;19;19998;-76
2022/10/29 13:59:21;;;;;;;17.88;7.72;;;;;;;;;;7392280;19;20002;-76
2022/10/29 14:02:01;;;;;;;17.20;6.97;;;;;;;;;;7391673;19;20002;-77
2022/10/29 14:04:33;;;;;;;19.45;7.68;;;;;;;;;;7391201;19;19995;-76
2022/10/29 14:06:59;;;;;;;22.73;7.32;;;;;;;;;;7391765;19;20031;-75
2022/10/29 14:09:44;;;;;;;14.60;7.15;;;;;;;;;;7391448;19;20006;-76
2022/10/29 14:12:16;;;;;;;15.27;6.97;;;;;;;;;;7391003;19;20026;-77
2022/10/29 14:15:00;;;;;;;18.75;7.85;;;;;;;;;;7390767;19;20006;-76
2022/10/29 14:17:25;;;;;;;17.30;7.80;;;;;;;;;;7383005;19;20347;-76
2022/10/29 14:19:51;;;;;;;19.33;7.15;;;;;;;;;;7386443;19;20002;-76
2022/10/29 14:22:34;;;;;;;18.58;7.50;;;;;;;;;;7383655;19;20021;-78
2022/10/29 14:25:01;;;;;;;19.92;7.32;;;;;;;;;;7389867;19;19999;-75
2022/10/29 14:27:26;;;;;;;17.63;7.30;;;;;;;;;;7391340;19;20006;-77
2022/10/29 14:29:51;;;;;;;13.00;6.95;;;;;;;;;;7384377;19;19998;-78
2022/10/29 14:32:19;;;;;;;17.08;6.90;;;;;;;;;;7385440;19;20026;-79
2022/10/29 14:34:48;;;;;;;18.48;7.60;;;;;;;;;;7386178;19;20005;-78
2022/10/29 14:37:32;;;;;;;15.88;7.22;;;;;;;;;;7388132;19;20054;-78
2022/10/29 14:40:05;;;;;;;14.73;7.10;;;;;;;;;;7384981;19;19999;-76
2022/10/29 14:42:33;;;;;;;16.58;6.78;;;;;;;;;;7387114;19;19998;-74
2022/10/29 14:45:06;;;;;;;16.55;7.20;;;;;;;;;;7385673;19;20013;-78
2022/10/29 14:47:36;;;;;;;16.48;6.70;;;;;;;;;;7384667;19;20014;-79
2022/10/29 14:50:04;;;;;;;15.98;8.00;;;;;;;;;;7387148;19;20405;-79